Mill Gap, Virginia
Current Conditions -  °F | °C
As of 8:55 AM on Friday 24 Oct 2014 (Local Time) from KHSP Reporting Station
Clear Clear  
Wind Chill: 32°   Ceiling: Unl
Heat Index: 41°   Visibility: 10mi
Dew Point: 38°   Wind: 18mph
Humidity: 90%   Direction: 300°WNW
Pressure: 30.05"   Gusts: NA
Location:  38.3937°N, 79.6382°W
Report Text: KHSP 241255Z AUTO 30016KT 10SM CLR 05/04 A3005 RMK AO2 T00510036
Loading
Personal Weather Stations






























Interactive Weather Map
Tropical Storm Tracking
New forecast layout! Learn more

10-Day Weather Forecast

Advertisements
Track Severe Weather on mobile